Goodwood — D5GY7 — position and weather

sailwx.info

Track history (hours):
 
Tides and Currents Weather Stations Pressure Air Temp Water Temp Dewpoint Dewpoint Depression Visibility Wind Speed Wind Dir Waves Ship Positions

Goodwood

Last reported at 2018-Apr-24 23:09 UTC. Time now 2018-Apr-27 02:42 UTC.
Position N 19°24' W 095°50'.

Length 199 m; draft 9.3 m.

Type: Cargo ship. MMSI: 636016606.

Date/timePositionNaut miles runAvg speedWind from/ knotsBaromVisibWave heightAir tempDewpointWater temp
2018-Apr-24 23:09N 19°24' W 095°50'315.9
2018-Apr-24 22:57N 19°23' W 095°52'715.0
2018-Apr-24 22:30N 19°18' W 095°57'713.4
2018-Apr-24 21:59N 19°12' W 096°02'5 9.3
2018-Apr-24 21:27N 19°12' W 096°07'2 1.4
2018-Apr-24 20:21N 19°13' W 096°08'0 0.0
2018-Apr-24 18:45N 19°13' W 096°08'0 0.0
2018-Apr-24 18:18N 19°13' W 096°08'0 0.0
2018-Apr-24 17:48N 19°13' W 096°08'0 0.0
2018-Apr-24 15:45N 19°13' W 096°08'0 0.0
2018-Apr-24 15:21N 19°13' W 096°08'0 0.0
2018-Apr-24 15:00N 19°13' W 096°08'0 0.0
2018-Apr-24 14:30N 19°13' W 096°08'0 0.0
2018-Apr-24 13:57N 19°13' W 096°08'0 0.0
2018-Apr-24 13:21N 19°13' W 096°08'0 0.0
2018-Apr-24 09:15N 19°13' W 096°08'0 0.0
2018-Apr-24 08:51N 19°13' W 096°08'0 0.0
2018-Apr-24 08:27N 19°13' W 096°08'0 0.0
2018-Apr-24 07:57N 19°13' W 096°08'0 0.0
2018-Apr-24 07:27N 19°13' W 096°08'0 0.0
2018-Apr-24 06:54N 19°13' W 096°08'0 0.0
2018-Apr-24 06:27N 19°13' W 096°08'0 0.0
2018-Apr-24 05:57N 19°13' W 096°08'0 0.0
2018-Apr-24 05:27N 19°13' W 096°08'0 0.0
2018-Apr-24 04:57N 19°13' W 096°08'0 0.0
2018-Apr-24 04:24N 19°13' W 096°08'0 0.0
2018-Apr-24 03:42N 19°13' W 096°08'0 0.0
2018-Apr-24 03:27N 19°13' W 096°08'0 0.0
2018-Apr-24 02:51N 19°13' W 096°08'0 0.0
2018-Apr-24 02:30N 19°13' W 096°08'0 0.0
2018-Apr-24 02:00N 19°13' W 096°08'0 0.0
2018-Apr-24 01:24N 19°13' W 096°08'0 0.0
2018-Apr-24 00:48N 19°13' W 096°08'0 0.0
2018-Apr-24 00:21N 19°13' W 096°08'0 0.0
2018-Apr-23 23:54N 19°13' W 096°08'0 0.0
2018-Apr-23 23:06N 19°13' W 096°08'0 0.0
2018-Apr-23 22:54N 19°13' W 096°08'0 0.0
2018-Apr-23 21:45N 19°13' W 096°08'0 0.0
2018-Apr-23 21:27N 19°13' W 096°08'0 0.0
2018-Apr-23 20:18N 19°13' W 096°08'0 0.0
2018-Apr-23 18:45N 19°13' W 096°08'0 0.0
2018-Apr-23 18:21N 19°13' W 096°08'0 0.0
2018-Apr-23 14:27N 19°13' W 096°08'0 0.0
2018-Apr-23 14:00N 19°13' W 096°08'0 0.0
2018-Apr-23 13:27N 19°13' W 096°08'0 0.0
2018-Apr-23 11:15N 19°13' W 096°08'0 0.0
2018-Apr-23 10:57N 19°13' W 096°08'0 0.0
2018-Apr-23 10:30N 19°13' W 096°08'0 0.0
2018-Apr-23 09:54N 19°13' W 096°08'0 0.0
2018-Apr-23 09:27N 19°13' W 096°08'0 0.0
2018-Apr-23 08:18N 19°13' W 096°08'0 0.0
2018-Apr-23 07:48N 19°13' W 096°08'0 0.0
2018-Apr-23 06:54N 19°13' W 096°08'0 0.0
2018-Apr-23 06:30N 19°13' W 096°08'0 0.0
2018-Apr-23 05:39N 19°13' W 096°08'0 0.0
2018-Apr-23 05:27N 19°13' W 096°08'0 0.0
2018-Apr-23 04:54N 19°13' W 096°08'0 0.0
2018-Apr-23 04:15N 19°13' W 096°08'0 0.0
2018-Apr-23 03:06N 19°13' W 096°08'0 0.0
2018-Apr-23 02:57N 19°13' W 096°08'0 0.0
2018-Apr-23 01:48N 19°13' W 096°08'0 0.0
2018-Apr-23 01:18N 19°13' W 096°08'0 0.0
2018-Apr-23 00:48N 19°13' W 096°08'0 0.0
2018-Apr-23 00:12N 19°13' W 096°08'0 0.0
2018-Apr-22 23:57N 19°13' W 096°08'0 0.0
2018-Apr-22 23:30N 19°13' W 096°08'0 0.0
2018-Apr-22 22:39N 19°13' W 096°08'0 0.0
2018-Apr-22 22:18N 19°13' W 096°08'0 0.0
2018-Apr-22 21:39N 19°13' W 096°08'0 0.0
2018-Apr-22 21:21N 19°13' W 096°08'0 0.0
2018-Apr-22 20:30N 19°13' W 096°08'0 0.0
2018-Apr-22 20:00N 19°13' W 096°08'0 0.0
2018-Apr-22 19:09N 19°13' W 096°08'0 0.0
2018-Apr-22 18:48N 19°13' W 096°08'0 0.0
2018-Apr-22 18:27N 19°13' W 096°08'0 0.0
2018-Apr-22 17:57N 19°13' W 096°08'0 0.0
2018-Apr-22 16:25N 19°13' W 096°08'1 1.3
2018-Apr-22 16:00N 19°12' W 096°08'4 8.1
2018-Apr-22 15:30N 19°11' W 096°04'3 6.4
2018-Apr-22 14:59N 19°09' W 096°01'0 1.0
2018-Apr-22 14:30N 19°09' W 096°00'0 0.2
2018-Apr-22 14:00N 19°09' W 096°00'0 0.0
2018-Apr-22 10:54N 19°09' W 096°00'0 0.0
2018-Apr-22 09:06N 19°09' W 096°00'0 0.0
2018-Apr-22 09:00N 19°09' W 096°00'0 0.0
2018-Apr-22 08:30N 19°09' W 096°00'0 0.0
2018-Apr-22 07:36N 19°09' W 096°00'0 0.0
2018-Apr-22 07:12N 19°09' W 096°00'0 0.0
2018-Apr-22 06:54N 19°09' W 096°00'0 0.0
2018-Apr-22 06:24N 19°09' W 096°00'0 0.0
2018-Apr-22 06:00N 19°09' W 096°00'0 0.0
2018-Apr-22 05:30N 19°09' W 096°00'0 0.0
2018-Apr-22 05:00N 19°09' W 096°00'0 0.0
2018-Apr-22 03:18N 19°09' W 096°00'0 0.1
2018-Apr-22 03:00N 19°09' W 096°00'0 0.0
2018-Apr-22 00:24N 19°09' W 096°00'0 0.0
2018-Apr-22 00:00N 19°09' W 096°00'0 0.1
2018-Apr-21 23:30N 19°09' W 096°00'0 0.0
2018-Apr-21 20:06N 19°09' W 096°00'0 0.0
2018-Apr-21 18:18N 19°09' W 096°00'0 0.0
2018-Apr-21 18:00N 19°09' W 096°00'0 0.0
2018-Apr-21 17:30N 19°09' W 096°00'0 0.0
2018-Apr-21 16:48N 19°09' W 096°00'0 0.0
2018-Apr-21 15:24N 19°09' W 096°00'0 0.0
2018-Apr-21 14:54N 19°09' W 096°00'0 0.0
2018-Apr-21 14:30N 19°09' W 096°00'0 0.0
2018-Apr-21 13:06N 19°09' W 096°00'0 0.0
2018-Apr-21 11:54N 19°09' W 096°00'0 0.0
2018-Apr-21 09:18N 19°09' W 096°00'0 0.0
2018-Apr-21 08:48N 19°09' W 096°00'0 0.0
2018-Apr-21 08:30N 19°09' W 096°00'0 0.0
2018-Apr-21 07:54N 19°09' W 096°00'0 0.0
2018-Apr-21 07:24N 19°09' W 096°00'0 0.0
2018-Apr-21 05:48N 19°09' W 096°00'0 0.0
2018-Apr-21 04:48N 19°09' W 096°00'0 0.0
2018-Apr-21 04:12N 19°09' W 096°00'0 0.0
2018-Apr-21 03:48N 19°09' W 096°00'0 0.0
2018-Apr-21 03:18N 19°09' W 096°00'0 0.0
2018-Apr-21 02:54N 19°09' W 096°00'0 0.0
2018-Apr-21 02:30N 19°09' W 096°00'0 0.0
2018-Apr-21 01:48N 19°09' W 096°00'0 0.0
2018-Apr-21 01:30N 19°09' W 096°00'0 0.0
2018-Apr-21 00:48N 19°09' W 096°00'0 0.0
2018-Apr-21 00:12N 19°09' W 096°00'0 0.0
2018-Apr-20 23:54N 19°09' W 096°00'0 0.0
2018-Apr-20 23:30N 19°09' W 096°00'0 0.0
2018-Apr-20 23:00N 19°09' W 096°00'0 0.3
2018-Apr-20 22:30N 19°09' W 096°00'3 5.7
2018-Apr-20 21:59N 19°12' W 095°60'715.4
2018-Apr-20 21:30N 19°19' W 095°60'4 8.8
2018-Apr-20 21:00N 19°24' W 095°59'0 0.8
2018-Apr-20 20:29N 19°24' W 095°59'0 0.7
2018-Apr-20 20:00N 19°24' W 095°59'0 0.7
2018-Apr-20 19:30N 19°25' W 095°59'2 4.9
2018-Apr-20 19:00N 19°27' W 095°59'1015.0
2018-Apr-20 18:18N 19°37' W 095°57'54516.1
2018-Apr-19 08:32N 28°36' W 094°26'116.0
2018-Apr-19 08:29N 28°37' W 094°26'815.8
2018-Apr-19 08:00N 28°44' W 094°26'815.8
2018-Apr-19 07:31N 28°52' W 094°26'815.9
2018-Apr-19 06:59N 29°00' W 094°27'815.9
2018-Apr-19 06:30N 29°08' W 094°28'815.8
2018-Apr-19 06:00N 29°14' W 094°33'713.3
2018-Apr-19 05:30N 29°19' W 094°39'714.2
2018-Apr-19 05:00N 29°21' W 094°47'815.9
2018-Apr-19 04:30N 29°28' W 094°51'714.3
2018-Apr-19 04:00N 29°34' W 094°55'611.7
2018-Apr-19 03:30N 29°39' W 094°58'5 9.8
2018-Apr-19 03:00N 29°43' W 095°01'4 8.0
2018-Apr-19 02:30N 29°46' W 095°05'3 6.8
2018-Apr-19 02:00N 29°44' W 095°08'3 5.8
2018-Apr-19 01:30N 29°45' W 095°11'3 6.0
2018-Apr-19 01:00N 29°43' W 095°14'2 3.6
2018-Apr-19 00:27N 29°44' W 095°17'0 0.0
2018-Apr-18 13:25N 29°44' W 095°17'0 0.0
2018-Apr-18 12:52N 29°44' W 095°17'0 0.0
2018-Apr-18 12:22N 29°44' W 095°17'0 0.0
2018-Apr-18 11:55N 29°44' W 095°17'0 0.0
2018-Apr-18 09:40N 29°44' W 095°17'0 0.0
2018-Apr-18 09:25N 29°44' W 095°17'0 0.0
2018-Apr-18 08:16N 29°44' W 095°17'0 0.0
2018-Apr-18 07:46N 29°44' W 095°17'0 0.0
2018-Apr-18 07:19N 29°44' W 095°17'0 0.3
2018-Apr-18 06:58N 29°44' W 095°17'2 4.5
2018-Apr-18 06:30N 29°43' W 095°14'3 5.2
2018-Apr-18 06:00N 29°45' W 095°12'3 5.7
2018-Apr-18 05:30N 29°44' W 095°09'3 6.0
2018-Apr-18 05:00N 29°46' W 095°05'4 7.4
2018-Apr-18 04:30N 29°44' W 095°02'4 8.4
2018-Apr-18 04:00N 29°41' W 094°59'611.1
2018-Apr-18 03:30N 29°35' W 094°56'713.4
2018-Apr-18 03:00N 29°30' W 094°52'713.7
2018-Apr-18 02:30N 29°23' W 094°49'712.6
2018-Apr-18 01:58N 29°21' W 094°42'612.5
2018-Apr-18 01:29N 29°17' W 094°36'511.0
2018-Apr-18 01:00N 29°14' W 094°31'4 8.8
2018-Apr-18 00:30N 29°11' W 094°27'612.8
2018-Apr-18 00:00N 29°05' W 094°25'816.5
2018-Apr-17 23:30N 28°57' W 094°25'816.1
2018-Apr-17 23:00N 28°49' W 094°24'816.5
2018-Apr-17 22:30N 28°41' W 094°24'816.6
2018-Apr-17 22:00N 28°33' W 094°24'816.8
2018-Apr-17 21:30N 28°24' W 094°24'816.8
2018-Apr-17 21:00N 28°16' W 094°24'916.9
2018-Apr-17 20:30N 28°07' W 094°25'1117.1
2018-Apr-17 19:51N 27°56' W 094°25'  
2018-Apr-15 02:45N 25°29' W 079°36'314.1
2018-Apr-15 02:30N 25°32' W 079°36'713.9
2018-Apr-15 02:00N 25°39' W 079°34'713.9
2018-Apr-15 01:30N 25°46' W 079°33'713.9
2018-Apr-15 01:00N 25°53' W 079°32'713.4
2018-Apr-15 00:29N 25°59' W 079°31'713.5
2018-Apr-15 00:00N 26°06' W 079°30'713.4
2018-Apr-14 23:30N 26°13' W 079°29'  
Track history (hours):
 
Tides and Currents Weather Stations Pressure Air Temp Water Temp Dewpoint Dewpoint Depression Visibility Wind Speed Wind Dir Waves Ship Positions

Goodwood

Last reported at 2018-Apr-24 23:09 UTC. Time now 2018-Apr-27 02:42 UTC.
Position N 19°24' W 095°50'.

Length 199 m; draft 9.3 m.

Type: Cargo ship. MMSI: 636016606.

Date/timePositionNaut miles runAvg speedWind from/ knotsBaromVisibWave heightAir tempDewpointWater temp
2018-Apr-24 23:09N 19°24' W 095°50'315.9
2018-Apr-24 22:57N 19°23' W 095°52'715.0
2018-Apr-24 22:30N 19°18' W 095°57'713.4
2018-Apr-24 21:59N 19°12' W 096°02'5 9.3
2018-Apr-24 21:27N 19°12' W 096°07'2 1.4
2018-Apr-24 20:21N 19°13' W 096°08'0 0.0
2018-Apr-24 18:45N 19°13' W 096°08'0 0.0
2018-Apr-24 18:18N 19°13' W 096°08'0 0.0
2018-Apr-24 17:48N 19°13' W 096°08'0 0.0
2018-Apr-24 15:45N 19°13' W 096°08'0 0.0
2018-Apr-24 15:21N 19°13' W 096°08'0 0.0
2018-Apr-24 15:00N 19°13' W 096°08'0 0.0
2018-Apr-24 14:30N 19°13' W 096°08'0 0.0
2018-Apr-24 13:57N 19°13' W 096°08'0 0.0
2018-Apr-24 13:21N 19°13' W 096°08'0 0.0
2018-Apr-24 09:15N 19°13' W 096°08'0 0.0
2018-Apr-24 08:51N 19°13' W 096°08'0 0.0
2018-Apr-24 08:27N 19°13' W 096°08'0 0.0
2018-Apr-24 07:57N 19°13' W 096°08'0 0.0
2018-Apr-24 07:27N 19°13' W 096°08'0 0.0
2018-Apr-24 06:54N 19°13' W 096°08'0 0.0
2018-Apr-24 06:27N 19°13' W 096°08'0 0.0
2018-Apr-24 05:57N 19°13' W 096°08'0 0.0
2018-Apr-24 05:27N 19°13' W 096°08'0 0.0
2018-Apr-24 04:57N 19°13' W 096°08'0 0.0
2018-Apr-24 04:24N 19°13' W 096°08'0 0.0
2018-Apr-24 03:42N 19°13' W 096°08'0 0.0
2018-Apr-24 03:27N 19°13' W 096°08'0 0.0
2018-Apr-24 02:51N 19°13' W 096°08'0 0.0
2018-Apr-24 02:30N 19°13' W 096°08'0 0.0
2018-Apr-24 02:00N 19°13' W 096°08'0 0.0
2018-Apr-24 01:24N 19°13' W 096°08'0 0.0
2018-Apr-24 00:48N 19°13' W 096°08'0 0.0
2018-Apr-24 00:21N 19°13' W 096°08'0 0.0
2018-Apr-23 23:54N 19°13' W 096°08'0 0.0
2018-Apr-23 23:06N 19°13' W 096°08'0 0.0
2018-Apr-23 22:54N 19°13' W 096°08'0 0.0
2018-Apr-23 21:45N 19°13' W 096°08'0 0.0
2018-Apr-23 21:27N 19°13' W 096°08'0 0.0
2018-Apr-23 20:18N 19°13' W 096°08'0 0.0
2018-Apr-23 18:45N 19°13' W 096°08'0 0.0
2018-Apr-23 18:21N 19°13' W 096°08'0 0.0
2018-Apr-23 14:27N 19°13' W 096°08'0 0.0
2018-Apr-23 14:00N 19°13' W 096°08'0 0.0
2018-Apr-23 13:27N 19°13' W 096°08'0 0.0
2018-Apr-23 11:15N 19°13' W 096°08'0 0.0
2018-Apr-23 10:57N 19°13' W 096°08'0 0.0
2018-Apr-23 10:30N 19°13' W 096°08'0 0.0
2018-Apr-23 09:54N 19°13' W 096°08'0 0.0
2018-Apr-23 09:27N 19°13' W 096°08'0 0.0
2018-Apr-23 08:18N 19°13' W 096°08'0 0.0
2018-Apr-23 07:48N 19°13' W 096°08'0 0.0
2018-Apr-23 06:54N 19°13' W 096°08'0 0.0
2018-Apr-23 06:30N 19°13' W 096°08'0 0.0
2018-Apr-23 05:39N 19°13' W 096°08'0 0.0
2018-Apr-23 05:27N 19°13' W 096°08'0 0.0
2018-Apr-23 04:54N 19°13' W 096°08'0 0.0
2018-Apr-23 04:15N 19°13' W 096°08'0 0.0
2018-Apr-23 03:06N 19°13' W 096°08'0 0.0
2018-Apr-23 02:57N 19°13' W 096°08'0 0.0
2018-Apr-23 01:48N 19°13' W 096°08'0 0.0
2018-Apr-23 01:18N 19°13' W 096°08'0 0.0
2018-Apr-23 00:48N 19°13' W 096°08'0 0.0
2018-Apr-23 00:12N 19°13' W 096°08'0 0.0
2018-Apr-22 23:57N 19°13' W 096°08'0 0.0
2018-Apr-22 23:30N 19°13' W 096°08'0 0.0
2018-Apr-22 22:39N 19°13' W 096°08'0 0.0
2018-Apr-22 22:18N 19°13' W 096°08'0 0.0
2018-Apr-22 21:39N 19°13' W 096°08'0 0.0
2018-Apr-22 21:21N 19°13' W 096°08'0 0.0
2018-Apr-22 20:30N 19°13' W 096°08'0 0.0
2018-Apr-22 20:00N 19°13' W 096°08'0 0.0
2018-Apr-22 19:09N 19°13' W 096°08'0 0.0
2018-Apr-22 18:48N 19°13' W 096°08'0 0.0
2018-Apr-22 18:27N 19°13' W 096°08'0 0.0
2018-Apr-22 17:57N 19°13' W 096°08'0 0.0
2018-Apr-22 16:25N 19°13' W 096°08'1 1.3
2018-Apr-22 16:00N 19°12' W 096°08'4 8.1
2018-Apr-22 15:30N 19°11' W 096°04'3 6.4
2018-Apr-22 14:59N 19°09' W 096°01'0 1.0
2018-Apr-22 14:30N 19°09' W 096°00'0 0.2
2018-Apr-22 14:00N 19°09' W 096°00'0 0.0
2018-Apr-22 10:54N 19°09' W 096°00'0 0.0
2018-Apr-22 09:06N 19°09' W 096°00'0 0.0
2018-Apr-22 09:00N 19°09' W 096°00'0 0.0
2018-Apr-22 08:30N 19°09' W 096°00'0 0.0
2018-Apr-22 07:36N 19°09' W 096°00'0 0.0
2018-Apr-22 07:12N 19°09' W 096°00'0 0.0
2018-Apr-22 06:54N 19°09' W 096°00'0 0.0
2018-Apr-22 06:24N 19°09' W 096°00'0 0.0
2018-Apr-22 06:00N 19°09' W 096°00'0 0.0
2018-Apr-22 05:30N 19°09' W 096°00'0 0.0
2018-Apr-22 05:00N 19°09' W 096°00'0 0.0
2018-Apr-22 03:18N 19°09' W 096°00'0 0.1
2018-Apr-22 03:00N 19°09' W 096°00'0 0.0
2018-Apr-22 00:24N 19°09' W 096°00'0 0.0
2018-Apr-22 00:00N 19°09' W 096°00'0 0.1
2018-Apr-21 23:30N 19°09' W 096°00'0 0.0
2018-Apr-21 20:06N 19°09' W 096°00'0 0.0
2018-Apr-21 18:18N 19°09' W 096°00'0 0.0
2018-Apr-21 18:00N 19°09' W 096°00'0 0.0
2018-Apr-21 17:30N 19°09' W 096°00'0 0.0
2018-Apr-21 16:48N 19°09' W 096°00'0 0.0
2018-Apr-21 15:24N 19°09' W 096°00'0 0.0
2018-Apr-21 14:54N 19°09' W 096°00'0 0.0
2018-Apr-21 14:30N 19°09' W 096°00'0 0.0
2018-Apr-21 13:06N 19°09' W 096°00'0 0.0
2018-Apr-21 11:54N 19°09' W 096°00'0 0.0
2018-Apr-21 09:18N 19°09' W 096°00'0 0.0
2018-Apr-21 08:48N 19°09' W 096°00'0 0.0
2018-Apr-21 08:30N 19°09' W 096°00'0 0.0
2018-Apr-21 07:54N 19°09' W 096°00'0 0.0
2018-Apr-21 07:24N 19°09' W 096°00'0 0.0
2018-Apr-21 05:48N 19°09' W 096°00'0 0.0
2018-Apr-21 04:48N 19°09' W 096°00'0 0.0
2018-Apr-21 04:12N 19°09' W 096°00'0 0.0
2018-Apr-21 03:48N 19°09' W 096°00'0 0.0
2018-Apr-21 03:18N 19°09' W 096°00'0 0.0
2018-Apr-21 02:54N 19°09' W 096°00'0 0.0
2018-Apr-21 02:30N 19°09' W 096°00'0 0.0
2018-Apr-21 01:48N 19°09' W 096°00'0 0.0
2018-Apr-21 01:30N 19°09' W 096°00'0 0.0
2018-Apr-21 00:48N 19°09' W 096°00'0 0.0
2018-Apr-21 00:12N 19°09' W 096°00'0 0.0
2018-Apr-20 23:54N 19°09' W 096°00'0 0.0
2018-Apr-20 23:30N 19°09' W 096°00'0 0.0
2018-Apr-20 23:00N 19°09' W 096°00'0 0.3
2018-Apr-20 22:30N 19°09' W 096°00'3 5.7
2018-Apr-20 21:59N 19°12' W 095°60'715.4
2018-Apr-20 21:30N 19°19' W 095°60'4 8.8
2018-Apr-20 21:00N 19°24' W 095°59'0 0.8
2018-Apr-20 20:29N 19°24' W 095°59'0 0.7
2018-Apr-20 20:00N 19°24' W 095°59'0 0.7
2018-Apr-20 19:30N 19°25' W 095°59'2 4.9
2018-Apr-20 19:00N 19°27' W 095°59'1015.0
2018-Apr-20 18:18N 19°37' W 095°57'54516.1
2018-Apr-19 08:32N 28°36' W 094°26'116.0
2018-Apr-19 08:29N 28°37' W 094°26'815.8
2018-Apr-19 08:00N 28°44' W 094°26'815.8
2018-Apr-19 07:31N 28°52' W 094°26'815.9
2018-Apr-19 06:59N 29°00' W 094°27'815.9
2018-Apr-19 06:30N 29°08' W 094°28'815.8
2018-Apr-19 06:00N 29°14' W 094°33'713.3
2018-Apr-19 05:30N 29°19' W 094°39'714.2
2018-Apr-19 05:00N 29°21' W 094°47'815.9
2018-Apr-19 04:30N 29°28' W 094°51'714.3
2018-Apr-19 04:00N 29°34' W 094°55'611.7
2018-Apr-19 03:30N 29°39' W 094°58'5 9.8
2018-Apr-19 03:00N 29°43' W 095°01'4 8.0
2018-Apr-19 02:30N 29°46' W 095°05'3 6.8
2018-Apr-19 02:00N 29°44' W 095°08'3 5.8
2018-Apr-19 01:30N 29°45' W 095°11'3 6.0
2018-Apr-19 01:00N 29°43' W 095°14'2 3.6
2018-Apr-19 00:27N 29°44' W 095°17'0 0.0
2018-Apr-18 13:25N 29°44' W 095°17'0 0.0
2018-Apr-18 12:52N 29°44' W 095°17'0 0.0
2018-Apr-18 12:22N 29°44' W 095°17'0 0.0
2018-Apr-18 11:55N 29°44' W 095°17'0 0.0
2018-Apr-18 09:40N 29°44' W 095°17'0 0.0
2018-Apr-18 09:25N 29°44' W 095°17'0 0.0
2018-Apr-18 08:16N 29°44' W 095°17'0 0.0
2018-Apr-18 07:46N 29°44' W 095°17'0 0.0
2018-Apr-18 07:19N 29°44' W 095°17'0 0.3
2018-Apr-18 06:58N 29°44' W 095°17'2 4.5
2018-Apr-18 06:30N 29°43' W 095°14'3 5.2
2018-Apr-18 06:00N 29°45' W 095°12'3 5.7
2018-Apr-18 05:30N 29°44' W 095°09'3 6.0
2018-Apr-18 05:00N 29°46' W 095°05'4 7.4
2018-Apr-18 04:30N 29°44' W 095°02'4 8.4
2018-Apr-18 04:00N 29°41' W 094°59'611.1
2018-Apr-18 03:30N 29°35' W 094°56'713.4
2018-Apr-18 03:00N 29°30' W 094°52'713.7
2018-Apr-18 02:30N 29°23' W 094°49'712.6
2018-Apr-18 01:58N 29°21' W 094°42'612.5
2018-Apr-18 01:29N 29°17' W 094°36'511.0
2018-Apr-18 01:00N 29°14' W 094°31'4 8.8
2018-Apr-18 00:30N 29°11' W 094°27'612.8
2018-Apr-18 00:00N 29°05' W 094°25'816.5
2018-Apr-17 23:30N 28°57' W 094°25'816.1
2018-Apr-17 23:00N 28°49' W 094°24'816.5
2018-Apr-17 22:30N 28°41' W 094°24'816.6
2018-Apr-17 22:00N 28°33' W 094°24'816.8
2018-Apr-17 21:30N 28°24' W 094°24'816.8
2018-Apr-17 21:00N 28°16' W 094°24'916.9
2018-Apr-17 20:30N 28°07' W 094°25'1117.1
2018-Apr-17 19:51N 27°56' W 094°25'  
2018-Apr-15 02:45N 25°29' W 079°36'314.1
2018-Apr-15 02:30N 25°32' W 079°36'713.9
2018-Apr-15 02:00N 25°39' W 079°34'713.9
2018-Apr-15 01:30N 25°46' W 079°33'713.9
2018-Apr-15 01:00N 25°53' W 079°32'713.4
2018-Apr-15 00:29N 25°59' W 079°31'713.5
2018-Apr-15 00:00N 26°06' W 079°30'713.4
2018-Apr-14 23:30N 26°13' W 079°29'  

Dump ship's entire track history